Time;durP1;ratioP1;P1;durP2;ratioP2;P2;SDS_P1;SDS_P2;PMS_P1;PMS_P2;Temp;Humidity;BMP_temperature;BMP_pressure;BME280_temperature;BME280_humidity;BME280_pressure;Samples;Min_cycle;Max_cycle;Signal;HPM_P1;HPM_P2
2022/07/03 00:01:56;;;;;;;3.67;1.67;;;18.10;79.90;;;;;;5072388;28;20028;-45
2022/07/03 00:04:23;;;;;;;2.90;1.75;;;18.10;80.00;;;;;;5055664;28;20041;-45
2022/07/03 00:06:52;;;;;;;5.25;1.38;;;18.10;79.80;;;;;;5051457;28;20025;-46
2022/07/03 00:09:19;;;;;;;2.83;1.35;;;18.10;79.90;;;;;;5070067;28;20032;-46
2022/07/03 00:11:48;;;;;;;5.40;1.80;;;18.20;79.90;;;;;;5072445;28;20033;-45
2022/07/03 00:14:17;;;;;;;3.30;2.00;;;18.20;79.70;;;;;;5053873;28;20033;-48
2022/07/03 00:16:44;;;;;;;5.30;1.75;;;18.20;79.50;;;;;;5052421;28;20051;-45
2022/07/03 00:19:09;;;;;;;4.38;2.58;;;18.20;79.70;;;;;;5062542;28;20072;-45
2022/07/03 00:21:43;;;;;;;4.00;1.60;;;18.20;80.00;;;;;;5052355;28;20069;-45
2022/07/03 00:24:28;;;;;;;4.35;1.70;;;18.20;80.20;;;;;;5050981;28;20047;-45
2022/07/03 00:26:58;;;;;;;4.63;1.33;;;18.20;80.30;;;;;;5051031;28;20428;-46
2022/07/03 00:29:26;;;;;;;;;;;18.10;80.80;;;;;;5067306;28;20024;-46
2022/07/03 00:31:53;;;;;;;4.97;1.52;;;18.10;80.90;;;;;;5051083;28;19904;-46
2022/07/03 00:34:20;;;;;;;2.97;1.75;;;18.10;81.10;;;;;;5052293;28;20170;-47
2022/07/03 00:36:48;;;;;;;2.88;1.40;;;18.00;81.10;;;;;;5051854;28;20431;-47
2022/07/03 00:39:17;;;;;;;2.42;1.45;;;18.00;81.20;;;;;;5068980;28;20032;-46
2022/07/03 00:41:47;;;;;;;3.38;1.60;;;18.00;81.30;;;;;;5071641;28;20084;-45
2022/07/03 00:44:15;;;;;;;4.85;1.65;;;17.90;81.20;;;;;;5052780;28;20109;-46
2022/07/03 00:46:47;;;;;;;2.88;1.67;;;17.90;81.30;;;;;;5051785;28;20091;-45
2022/07/03 00:49:15;;;;;;;3.80;2.25;;;17.90;81.50;;;;;;5051082;28;20041;-45
2022/07/03 00:51:43;;;;;;;3.20;1.40;;;17.90;81.60;;;;;;5034263;28;20460;-46
2022/07/03 00:54:16;;;;;;;3.28;1.65;;;17.90;81.90;;;;;;5068362;28;20103;-47
2022/07/03 00:56:52;;;;;;;4.78;1.83;;;17.90;82.00;;;;;;5071620;28;20492;-45
2022/07/03 00:59:20;;;;;;;4.07;1.67;;;17.90;82.10;;;;;;5066273;28;20047;-47
2022/07/03 01:01:54;;;;;;;2.55;1.38;;;17.90;82.10;;;;;;5071538;28;20040;-45
2022/07/03 01:04:51;;;;;;;3.90;2.00;;;17.80;82.20;;;;;;5054212;28;20029;-46
2022/07/03 01:07:36;;;;;;;4.28;1.90;;;17.90;82.30;;;;;;5051211;28;20508;-46
2022/07/03 01:10:45;;;;;;;4.50;2.08;;;17.80;82.60;;;;;;5071469;28;20060;-45
2022/07/03 01:13:48;;;;;;;3.50;1.80;;;17.80;82.60;;;;;;5050153;28;20048;-46
2022/07/03 01:16:51;;;;;;;3.85;1.60;;;17.80;82.70;;;;;;5047843;28;20025;-49
2022/07/03 01:19:30;;;;;;;3.80;1.30;;;17.80;82.90;;;;;;5061187;28;20033;-49
2022/07/03 01:22:14;;;;;;;3.00;1.63;;;17.80;83.20;;;;;;5070982;28;20056;-46
2022/07/03 01:25:17;;;;;;;4.80;2.00;;;17.70;83.30;;;;;;5052322;28;20469;-45
2022/07/03 01:28:01;;;;;;;4.10;1.92;;;17.70;83.30;;;;;;5050846;28;20037;-46
2022/07/03 01:30:31;;;;;;;6.75;1.80;;;17.70;83.40;;;;;;5070344;28;20033;-46
2022/07/03 01:33:10;;;;;;;3.38;1.98;;;17.70;83.50;;;;;;5067460;28;20409;-45
2022/07/03 01:35:46;;;;;;;2.47;1.73;;;17.70;83.60;;;;;;5050788;28;20454;-46
2022/07/03 01:38:14;;;;;;;3.80;2.13;;;17.70;83.70;;;;;;5057476;28;20033;-47
2022/07/03 01:40:42;;;;;;;4.70;2.00;;;17.70;83.90;;;;;;5049265;28;20033;-45
2022/07/03 01:43:11;;;;;;;4.50;2.00;;;17.70;84.10;;;;;;5050592;28;20071;-47
2022/07/03 01:45:43;;;;;;;2.60;1.75;;;17.70;84.20;;;;;;5069259;28;20127;-45
2022/07/03 01:48:11;;;;;;;3.45;1.88;;;17.60;84.30;;;;;;5051912;28;20033;-45
2022/07/03 01:50:40;;;;;;;2.90;1.48;;;17.60;84.30;;;;;;5049807;28;20039;-45
2022/07/03 01:53:09;;;;;;;3.70;2.22;;;17.60;84.50;;;;;;5049091;28;20464;-45
2022/07/03 01:55:39;;;;;;;3.13;2.10;;;17.60;84.60;;;;;;5065157;28;20032;-47
2022/07/03 01:58:06;;;;;;;;;;;17.70;84.70;;;;;;5066920;28;20698;-46
2022/07/03 02:00:45;;;;;;;5.45;2.05;;;17.60;84.80;;;;;;5063183;28;19922;-46
2022/07/03 02:03:25;;;;;;;4.40;2.50;;;17.60;85.00;;;;;;5059708;28;20441;-45
2022/07/03 02:06:25;;;;;;;5.90;2.83;;;17.60;84.90;;;;;;5048568;28;20051;-46
2022/07/03 02:09:10;;;;;;;3.95;2.60;;;17.60;84.70;;;;;;5045779;28;20608;-46
2022/07/03 02:11:44;;;;;;;3.70;2.40;;;17.60;84.80;;;;;;5049964;28;20086;-46
2022/07/03 02:14:33;;;;;;;4.57;2.50;;;17.60;84.80;;;;;;5048467;28;20021;-46
2022/07/03 02:17:16;;;;;;;5.20;2.03;;;17.60;84.80;;;;;;5049413;28;20025;-45
2022/07/03 02:20:02;;;;;;;5.45;2.60;;;17.60;84.70;;;;;;5057470;28;20031;-46
2022/07/03 02:22:39;;;;;;;5.05;2.85;;;17.50;84.60;;;;;;5051987;28;20029;-45
2022/07/03 02:25:26;;;;;;;4.30;2.83;;;17.50;84.60;;;;;;5049656;28;20053;-47
2022/07/03 02:28:05;;;;;;;4.07;2.50;;;17.50;84.70;;;;;;5062769;28;20033;-47
2022/07/03 02:30:38;;;;;;;3.67;2.72;;;17.50;84.80;;;;;;5029967;28;20032;-44
2022/07/03 02:33:06;;;;;;;4.55;2.17;;;17.50;84.80;;;;;;5062918;28;20103;-44
2022/07/03 02:35:34;;;;;;;4.63;2.42;;;17.40;84.80;;;;;;5069563;28;20024;-45
2022/07/03 02:38:19;;;;;;;4.05;2.40;;;17.40;84.90;;;;;;5053073;28;20074;-45
2022/07/03 02:40:57;;;;;;;5.32;3.03;;;17.40;85.10;;;;;;5049116;28;20064;-45
2022/07/03 02:43:47;;;;;;;4.70;2.67;;;17.40;85.00;;;;;;5060153;28;20032;-45
2022/07/03 02:49:31;;;;;;;4.63;2.58;;;17.40;85.00;;;;;;5053834;28;20075;-46
2022/07/03 02:52:12;;;;;;;4.35;2.83;;;17.40;85.00;;;;;;5069211;28;20048;-46
2022/07/03 02:54:45;;;;;;;6.68;3.28;;;17.40;85.00;;;;;;5059092;28;20320;-46
2022/07/03 02:57:17;;;;;;;5.57;3.55;;;17.40;84.90;;;;;;5049094;28;20021;-44
2022/07/03 03:00:01;;;;;;;5.10;3.60;;;17.40;84.80;;;;;;5054744;28;20060;-46
2022/07/03 03:02:43;;;;;;;4.32;3.67;;;17.40;84.90;;;;;;5068133;28;20025;-45
2022/07/03 03:05:35;;;;;;;4.68;4.10;;;17.40;85.00;;;;;;5067568;28;20044;-45
2022/07/03 03:08:33;;;;;;;5.35;3.40;;;17.40;85.10;;;;;;5066942;28;20028;-47
2022/07/03 03:11:08;;;;;;;7.43;3.33;;;17.30;85.10;;;;;;5049275;28;20044;-46
2022/07/03 03:13:35;;;;;;;3.88;3.15;;;17.30;85.20;;;;;;5048894;28;20029;-45
2022/07/03 03:16:19;;;;;;;6.38;4.18;;;17.20;85.30;;;;;;5047241;28;20029;-45
2022/07/03 03:18:48;;;;;;;5.38;3.95;;;17.30;85.40;;;;;;5049885;28;20028;-47
2022/07/03 03:21:19;;;;;;;4.90;3.78;;;17.20;85.40;;;;;;5049119;28;20064;-47
2022/07/03 03:24:03;;;;;;;6.00;3.78;;;17.20;85.40;;;;;;5049095;28;20033;-45
2022/07/03 03:26:31;;;;;;;6.68;4.35;;;17.20;85.30;;;;;;5048783;28;20035;-45
2022/07/03 03:28:59;;;;;;;7.68;4.40;;;17.20;85.20;;;;;;5055355;28;20025;-45
2022/07/03 03:31:27;;;;;;;5.43;4.40;;;17.20;85.20;;;;;;5048836;28;20025;-45
2022/07/03 03:33:53;;;;;;;8.57;5.60;;;17.10;85.00;;;;;;5049495;28;20051;-47
2022/07/03 03:36:21;;;;;;;5.75;4.95;;;17.10;84.90;;;;;;5048434;28;20041;-45
2022/07/03 03:38:48;;;;;;;5.60;5.05;;;17.00;85.00;;;;;;5048492;28;20033;-45
2022/07/03 03:41:16;;;;;;;7.47;5.15;;;17.00;84.70;;;;;;5048027;28;20365;-45
2022/07/03 03:43:44;;;;;;;5.15;4.65;;;16.90;84.80;;;;;;5060259;28;20042;-45
2022/07/03 03:46:11;;;;;;;6.15;5.03;;;16.90;84.90;;;;;;5068552;28;20028;-46
2022/07/03 03:48:38;;;;;;;5.85;5.25;;;16.80;84.80;;;;;;5060918;28;20021;-47
2022/07/03 03:51:07;;;;;;;7.45;5.82;;;16.80;85.00;;;;;;5048837;28;20033;-45
2022/07/03 03:53:33;;;;;;;7.40;5.97;;;16.80;85.10;;;;;;5048723;28;20100;-45
2022/07/03 03:56:20;;;;;;;6.07;5.40;;;16.70;85.10;;;;;;5047784;28;20137;-46
2022/07/03 03:58:47;;;;;;;10.50;6.00;;;16.70;85.20;;;;;;5047718;28;20480;-45
2022/07/03 04:01:13;;;;;;;8.93;6.20;;;16.70;85.30;;;;;;5059395;28;20044;-45
2022/07/03 04:03:41;;;;;;;7.00;5.93;;;16.70;85.40;;;;;;5068532;28;20056;-47
2022/07/03 04:06:10;;;;;;;7.80;5.47;;;16.60;85.60;;;;;;5060223;28;20557;-45
2022/07/03 04:08:37;;;;;;;6.35;5.70;;;16.60;85.60;;;;;;5031210;28;20051;-45
2022/07/03 04:11:03;;;;;;;6.45;5.07;;;16.60;85.70;;;;;;5056564;28;20461;-45
2022/07/03 04:13:30;;;;;;;5.90;5.30;;;16.60;85.80;;;;;;5068574;28;20032;-46
2022/07/03 04:15:59;;;;;;;6.80;5.55;;;16.60;85.80;;;;;;5060566;28;20036;-45
2022/07/03 04:18:25;;;;;;;7.80;6.03;;;16.70;85.80;;;;;;5067166;28;20040;-46
2022/07/03 04:20:52;;;;;;;5.97;5.38;;;16.80;86.00;;;;;;5065580;28;20098;-45
2022/07/03 04:23:19;;;;;;;6.07;5.45;;;16.80;85.90;;;;;;5067389;28;20112;-46
2022/07/03 04:25:46;;;;;;;8.48;5.63;;;16.90;85.80;;;;;;5050121;28;20426;-45
2022/07/03 04:28:13;;;;;;;9.02;6.13;;;17.00;85.60;;;;;;5054362;28;20100;-46
2022/07/03 04:30:40;;;;;;;7.45;5.82;;;17.10;85.50;;;;;;5071422;28;20070;-45
2022/07/03 04:33:08;;;;;;;6.53;5.72;;;17.20;85.10;;;;;;5065634;28;20056;-48
2022/07/03 04:35:34;;;;;;;6.45;5.65;;;17.40;84.90;;;;;;5051727;28;20035;-45
2022/07/03 04:38:01;;;;;;;7.20;6.15;;;17.40;84.60;;;;;;5052777;28;20039;-45
2022/07/03 04:40:27;;;;;;;5.60;4.97;;;17.60;84.20;;;;;;5050562;28;20063;-47
2022/07/03 04:42:53;;;;;;;5.93;4.60;;;17.70;84.00;;;;;;5055174;28;20032;-46
2022/07/03 04:45:20;;;;;;;7.03;5.05;;;17.80;83.60;;;;;;5071919;28;20063;-47
2022/07/03 04:47:48;;;;;;;9.32;5.28;;;17.90;83.50;;;;;;5070072;28;20028;-47
2022/07/03 04:50:13;;;;;;;7.05;5.10;;;17.90;83.20;;;;;;5064925;28;20097;-49
2022/07/03 04:52:41;;;;;;;7.53;5.22;;;18.00;82.90;;;;;;5067478;28;20025;-47
2022/07/03 04:55:09;;;;;;;5.80;4.85;;;18.10;82.80;;;;;;5050838;28;20025;-45
2022/07/03 04:57:39;;;;;;;5.18;4.68;;;18.10;82.60;;;;;;5054814;28;20100;-46
2022/07/03 05:00:07;;;;;;;5.60;4.68;;;18.20;81.80;;;;;;5071345;28;20066;-47
2022/07/03 05:02:34;;;;;;;6.15;4.15;;;18.20;81.80;;;;;;5068950;28;20040;-45
2022/07/03 05:05:01;;;;;;;4.40;3.83;;;18.30;81.50;;;;;;5071348;28;20123;-46
2022/07/03 05:07:28;;;;;;;5.97;4.55;;;18.30;81.30;;;;;;5051405;28;20025;-46
2022/07/03 05:09:54;;;;;;;6.18;3.60;;;18.30;81.30;;;;;;5057365;28;20023;-48
2022/07/03 05:12:22;;;;;;;6.22;4.07;;;18.40;81.20;;;;;;5060312;28;20111;-49
2022/07/03 05:14:49;;;;;;;6.13;4.28;;;18.40;81.30;;;;;;5056317;28;20033;-48
2022/07/03 05:17:19;;;;;;;5.25;3.97;;;18.50;81.40;;;;;;5071411;28;20075;-49
2022/07/03 05:19:46;;;;;;;7.50;4.97;;;18.50;81.30;;;;;;5066020;28;20032;-45
2022/07/03 05:22:13;;;;;;;5.30;4.25;;;18.50;81.10;;;;;;5050127;28;20442;-48
2022/07/03 05:24:42;;;;;;;7.72;4.05;;;18.60;81.20;;;;;;5053660;28;20033;-46
2022/07/03 05:27:10;;;;;;;5.72;3.70;;;18.60;81.20;;;;;;5070945;28;20020;-45
2022/07/03 05:29:40;;;;;;;6.20;4.25;;;18.70;81.40;;;;;;5070203;28;20353;-47
2022/07/03 05:32:07;;;;;;;4.93;3.95;;;18.80;81.50;;;;;;5071047;28;20024;-45
2022/07/03 05:34:34;;;;;;;4.95;4.45;;;18.80;81.70;;;;;;5069026;28;20479;-45
2022/07/03 05:37:00;;;;;;;7.07;4.07;;;18.80;81.60;;;;;;5050082;28;20079;-45
2022/07/03 05:39:37;;;;;;;4.93;3.67;;;18.90;81.40;;;;;;5049192;28;20025;-48
2022/07/03 05:42:05;;;;;;;4.60;3.70;;;18.90;81.60;;;;;;5045199;28;20052;-46
2022/07/03 05:44:32;;;;;;;5.95;3.72;;;18.90;81.50;;;;;;5053012;28;20025;-49
2022/07/03 05:46:58;;;;;;;5.82;3.85;;;18.90;81.40;;;;;;5049738;28;20040;-46
2022/07/03 05:49:25;;;;;;;4.20;3.38;;;18.90;81.10;;;;;;5053022;28;20066;-49
2022/07/03 05:51:52;;;;;;;6.55;4.28;;;19.00;81.10;;;;;;5051325;28;20033;-50
2022/07/03 05:54:17;;;;;;;4.45;3.08;;;19.10;80.90;;;;;;5056817;28;20040;-46
2022/07/03 05:56:44;;;;;;;5.28;3.65;;;19.10;81.20;;;;;;5050094;28;20044;-46
2022/07/03 05:59:11;;;;;;;4.03;3.28;;;19.10;80.70;;;;;;5048637;28;20063;-47
2022/07/03 06:01:40;;;;;;;3.80;2.45;;;19.20;81.30;;;;;;5053046;28;20542;-46
2022/07/03 06:04:10;;;;;;;3.45;2.40;;;19.30;81.20;;;;;;5051610;28;20064;-48
2022/07/03 06:06:37;;;;;;;4.70;3.15;;;19.40;80.80;;;;;;5049835;28;20469;-46
2022/07/03 06:09:04;;;;;;;5.40;3.85;;;19.40;80.30;;;;;;5050222;28;20036;-46
2022/07/03 06:11:31;;;;;;;4.93;3.30;;;19.50;79.90;;;;;;5050097;28;20033;-48
2022/07/03 06:13:57;;;;;;;4.72;3.53;;;19.80;79.80;;;;;;5049521;28;20052;-46
2022/07/03 06:16:24;;;;;;;3.17;2.47;;;20.00;78.30;;;;;;5052606;28;20039;-46
2022/07/03 06:18:51;;;;;;;4.50;2.70;;;20.20;77.20;;;;;;5049260;28;20040;-46
2022/07/03 06:21:18;;;;;;;3.63;2.65;;;20.40;75.70;;;;;;5051217;28;20044;-47
2022/07/03 06:23:48;;;;;;;3.67;2.17;;;20.60;75.70;;;;;;5048327;28;20025;-47
2022/07/03 06:26:15;;;;;;;4.10;2.33;;;20.70;75.10;;;;;;5047956;28;20031;-45
2022/07/03 06:28:42;;;;;;;3.97;2.47;;;20.70;74.70;;;;;;5053513;28;20590;-46
2022/07/03 06:31:10;;;;;;;3.85;2.30;;;20.60;74.20;;;;;;5066852;28;20025;-46
2022/07/03 06:33:37;;;;;;;3.72;2.63;;;20.50;74.70;;;;;;5049146;28;20029;-46
2022/07/03 06:36:04;;;;;;;4.35;2.67;;;20.40;74.70;;;;;;5047586;28;20029;-46
2022/07/03 06:38:31;;;;;;;3.83;2.15;;;20.40;74.80;;;;;;5048074;28;20112;-46
2022/07/03 06:40:58;;;;;;;5.90;3.28;;;20.40;74.70;;;;;;5047075;28;20041;-50
2022/07/03 06:43:27;;;;;;;5.88;3.08;;;20.40;74.20;;;;;;5049171;28;20040;-45
2022/07/03 06:45:54;;;;;;;4.03;3.13;;;20.50;74.20;;;;;;5048330;28;20049;-46
2022/07/03 06:48:21;;;;;;;4.57;3.03;;;20.60;74.30;;;;;;5049216;28;20427;-46
2022/07/03 06:50:48;;;;;;;3.80;2.22;;;20.60;73.70;;;;;;5049052;28;20021;-45
2022/07/03 06:53:15;;;;;;;6.28;3.00;;;20.80;73.10;;;;;;5048059;28;20035;-46
2022/07/03 06:55:42;;;;;;;4.63;3.10;;;20.80;70.90;;;;;;5049383;28;20036;-46
2022/07/03 06:58:09;;;;;;;8.90;3.63;;;21.00;71.70;;;;;;5048656;28;20021;-47
2022/07/03 07:00:38;;;;;;;6.78;2.70;;;21.20;70.20;;;;;;5050146;28;20457;-45
2022/07/03 07:03:05;;;;;;;4.22;2.65;;;21.40;67.40;;;;;;5047784;28;20033;-48
2022/07/03 07:05:32;;;;;;;4.35;2.35;;;21.50;68.00;;;;;;5050859;28;20039;-46
2022/07/03 07:08:02;;;;;;;4.20;2.38;;;21.70;68.30;;;;;;5053954;28;20776;-46
2022/07/03 07:10:31;;;;;;;5.57;2.15;;;21.70;66.40;;;;;;5051445;28;20691;-46
2022/07/03 07:12:58;;;;;;;3.65;1.73;;;21.70;67.40;;;;;;5048694;28;20056;-46
2022/07/03 07:15:25;;;;;;;3.47;1.88;;;21.80;67.50;;;;;;5049124;28;20032;-46
2022/07/03 07:17:51;;;;;;;7.38;2.35;;;22.00;67.30;;;;;;5047539;28;20025;-46
2022/07/03 07:20:18;;;;;;;4.32;2.05;;;22.30;64.10;;;;;;5048692;28;20487;-48
2022/07/03 07:22:45;;;;;;;5.80;2.63;;;22.90;62.80;;;;;;5048357;28;20047;-46
2022/07/03 07:25:12;;;;;;;2.55;1.20;;;23.30;61.00;;;;;;5047783;28;20076;-46
2022/07/03 07:27:39;;;;;;;4.82;2.00;;;24.10;61.00;;;;;;5051665;28;20142;-46
2022/07/03 07:30:06;;;;;;;4.15;1.63;;;24.90;57.00;;;;;;5053664;28;20025;-47
2022/07/03 07:32:32;;;;;;;6.82;1.50;;;25.40;56.10;;;;;;5048575;28;20035;-46
2022/07/03 07:35:00;;;;;;;3.50;1.67;;;25.70;53.40;;;;;;5048229;28;20408;-46
2022/07/03 07:37:27;;;;;;;2.95;1.25;;;25.80;52.70;;;;;;5052311;28;20498;-46
2022/07/03 07:39:56;;;;;;;4.20;1.13;;;25.90;53.30;;;;;;5054546;28;20040;-47
2022/07/03 07:42:24;;;;;;;;;;;26.50;52.70;;;;;;5067486;28;20070;-46
2022/07/03 07:44:51;;;;;;;3.17;1.42;;;26.80;51.00;;;;;;5068294;28;19962;-46
2022/07/03 07:47:20;;;;;;;3.72;1.40;;;27.00;50.50;;;;;;5048693;28;20116;-46
2022/07/03 07:49:47;;;;;;;3.45;1.25;;;27.30;50.60;;;;;;5047235;28;20059;-47
2022/07/03 07:52:13;;;;;;;3.25;1.35;;;27.40;51.20;;;;;;5068027;28;20486;-45
2022/07/03 07:54:40;;;;;;;2.55;1.30;;;27.20;50.80;;;;;;5068473;28;20036;-47
2022/07/03 07:57:07;;;;;;;3.92;1.70;;;27.20;49.30;;;;;;5048017;28;20036;-46
2022/07/03 07:59:33;;;;;;;3.53;1.60;;;27.10;51.50;;;;;;5048482;28;20033;-46
2022/07/03 08:07:31;;;;;;;5.55;1.75;;;27.40;50.70;;;;;;5040675;28;20461;-46
2022/07/03 08:09:57;;;;;;;4.55;1.83;;;27.20;50.50;;;;;;5051330;28;20029;-46
2022/07/03 08:12:23;;;;;;;5.78;2.47;;;27.10;49.40;;;;;;5052042;28;20067;-46
2022/07/03 08:14:49;;;;;;;3.75;1.73;;;27.20;49.80;;;;;;5052191;28;20060;-47
2022/07/03 08:17:14;;;;;;;3.30;1.88;;;27.30;49.30;;;;;;5053351;28;20035;-46
2022/07/03 08:19:41;;;;;;;2.60;1.52;;;27.30;50.10;;;;;;5051820;28;20032;-46
2022/07/03 08:22:08;;;;;;;4.57;1.63;;;27.30;50.50;;;;;;5069588;28;20037;-46
2022/07/03 08:24:34;;;;;;;7.05;1.67;;;27.70;48.80;;;;;;5070680;28;20060;-47
2022/07/03 08:27:01;;;;;;;3.88;2.00;;;28.00;48.20;;;;;;5055620;28;20057;-46
2022/07/03 08:29:27;;;;;;;4.75;2.05;;;28.20;46.30;;;;;;5057369;28;20059;-46
2022/07/03 08:31:54;;;;;;;4.25;1.83;;;28.40;45.90;;;;;;5051113;28;20047;-46
2022/07/03 08:34:21;;;;;;;4.03;1.90;;;28.40;47.30;;;;;;5053351;28;20021;-46
2022/07/03 08:36:48;;;;;;;4.93;2.17;;;28.20;46.00;;;;;;5070796;28;20086;-48
2022/07/03 08:39:15;;;;;;;3.95;1.67;;;27.50;47.70;;;;;;5070952;28;20020;-46
2022/07/03 08:41:50;;;;;;;5.30;1.88;;;27.30;49.50;;;;;;5051374;28;20080;-46
2022/07/03 08:44:18;;;;;;;3.88;1.63;;;27.30;47.10;;;;;;5051380;28;20017;-48
2022/07/03 08:46:50;;;;;;;3.53;1.60;;;27.30;47.40;;;;;;5070406;28;20440;-46
2022/07/03 08:49:19;;;;;;;4.35;1.40;;;27.30;48.40;;;;;;5058524;28;20064;-48
2022/07/03 08:51:48;;;;;;;6.38;1.83;;;27.40;48.60;;;;;;5061752;28;20104;-47
2022/07/03 08:54:18;;;;;;;2.65;1.17;;;27.70;46.90;;;;;;5051095;28;20060;-45
2022/07/03 08:56:48;;;;;;;3.42;1.30;;;27.60;47.20;;;;;;5071044;28;20058;-46
2022/07/03 08:59:18;;;;;;;2.45;1.40;;;28.40;47.60;;;;;;5066615;28;20017;-46
2022/07/03 09:01:46;;;;;;;3.88;1.55;;;28.40;45.40;;;;;;5055487;28;20048;-46
2022/07/03 09:04:13;;;;;;;3.78;1.90;;;29.00;47.60;;;;;;5049417;28;20030;-47
2022/07/03 09:06:43;;;;;;;4.82;1.45;;;29.00;44.60;;;;;;5050662;28;20033;-47
2022/07/03 09:09:10;;;;;;;2.88;1.20;;;28.80;45.50;;;;;;5049972;28;20025;-49
2022/07/03 09:11:38;;;;;;;2.78;1.10;;;28.90;43.50;;;;;;5050409;28;20028;-49
2022/07/03 09:14:06;;;;;;;3.85;1.15;;;29.00;44.20;;;;;;5051203;28;20056;-47
2022/07/03 09:16:36;;;;;;;3.95;1.10;;;28.90;45.00;;;;;;5059584;28;20029;-49
2022/07/03 09:19:04;;;;;;;4.07;1.45;;;29.10;44.30;;;;;;5051044;28;20028;-46
2022/07/03 09:21:42;;;;;;;5.78;1.45;;;28.90;43.70;;;;;;5051088;28;20013;-46
2022/07/03 09:24:12;;;;;;;4.68;1.38;;;28.90;43.50;;;;;;5049887;28;20025;-48
2022/07/03 09:26:50;;;;;;;4.82;1.05;;;28.80;44.70;;;;;;5053365;28;20120;-47
2022/07/03 09:29:18;;;;;;;3.20;1.20;;;29.00;44.20;;;;;;5069835;28;20028;-49
2022/07/03 09:31:55;;;;;;;4.00;1.60;;;28.90;43.80;;;;;;5064464;28;20041;-46
2022/07/03 09:34:26;;;;;;;4.53;0.90;;;28.90;42.70;;;;;;5054644;28;20060;-47
2022/07/03 09:36:53;;;;;;;4.63;1.20;;;29.10;44.30;;;;;;5070357;28;20031;-47
2022/07/03 09:39:31;;;;;;;3.72;1.00;;;29.40;44.20;;;;;;5061861;28;20104;-47
2022/07/03 09:42:11;;;;;;;2.70;1.13;;;29.70;45.80;;;;;;5049351;28;20044;-47
2022/07/03 09:44:46;;;;;;;2.70;1.08;;;29.70;46.90;;;;;;5054019;28;20041;-48
2022/07/03 09:47:16;;;;;;;3.22;1.10;;;29.60;46.30;;;;;;5046621;28;20032;-47
2022/07/03 09:49:56;;;;;;;5.03;1.83;;;29.50;47.60;;;;;;5049701;28;20021;-48
2022/07/03 09:52:43;;;;;;;5.07;1.63;;;29.40;48.00;;;;;;5045798;28;20341;-46
2022/07/03 09:55:15;;;;;;;2.33;1.27;;;29.40;48.10;;;;;;5070490;28;20075;-47
2022/07/03 09:57:57;;;;;;;5.15;1.38;;;28.90;49.10;;;;;;5061978;28;20033;-53
2022/07/03 10:00:42;;;;;;;5.13;1.10;;;28.80;51.10;;;;;;5051534;28;20166;-49
2022/07/03 10:03:10;;;;;;;3.38;1.08;;;28.60;51.60;;;;;;5050202;28;20035;-47
2022/07/03 10:06:02;;;;;;;3.63;1.45;;;28.30;51.60;;;;;;5048625;28;20032;-48
2022/07/03 10:08:30;;;;;;;3.28;1.10;;;28.10;54.50;;;;;;5060947;28;20037;-49
2022/07/03 10:10:57;;;;;;;4.15;1.58;;;28.60;51.20;;;;;;5060271;28;20044;-46
2022/07/03 10:13:24;;;;;;;5.97;1.50;;;28.00;50.50;;;;;;5049611;28;20047;-47
2022/07/03 10:15:51;;;;;;;2.95;1.55;;;27.00;49.70;;;;;;5049182;28;20047;-48
2022/07/03 10:18:22;;;;;;;2.55;0.90;;;26.50;50.30;;;;;;5051440;28;20025;-46
2022/07/03 10:20:50;;;;;;;4.75;0.90;;;26.00;49.00;;;;;;5069950;28;20082;-45
2022/07/03 10:23:21;;;;;;;3.20;1.10;;;25.50;50.70;;;;;;5061061;28;20033;-45
2022/07/03 10:25:48;;;;;;;3.28;1.02;;;25.60;51.80;;;;;;5048934;28;20032;-46
2022/07/03 10:28:17;;;;;;;2.38;0.70;;;25.40;52.20;;;;;;5048994;28;20504;-45
2022/07/03 10:30:47;;;;;;;3.80;1.10;;;25.10;52.60;;;;;;5062105;28;20032;-46
2022/07/03 10:33:14;;;;;;;3.85;0.90;;;25.10;50.80;;;;;;5049414;28;20095;-46
2022/07/03 10:35:50;;;;;;;3.45;0.93;;;25.10;52.90;;;;;;5048579;28;20358;-46
2022/07/03 10:38:39;;;;;;;2.10;1.00;;;25.00;53.90;;;;;;5050073;28;20085;-47
2022/07/03 10:47:05;;;;;;;3.53;1.42;;;25.50;54.60;;;;;;5049079;28;20032;-45
2022/07/03 10:49:32;;;;;;;6.40;2.20;;;25.70;58.50;;;;;;5048711;28;20052;-46
2022/07/03 10:52:01;;;;;;;4.05;1.70;;;25.90;59.40;;;;;;5049643;28;20090;-48
2022/07/03 10:54:36;;;;;;;5.20;2.50;;;25.70;59.60;;;;;;5048174;28;20037;-47
2022/07/03 10:57:20;;;;;;;3.58;1.70;;;25.60;59.10;;;;;;5050008;28;20112;-47
2022/07/03 10:59:49;;;;;;;5.00;1.95;;;25.40;61.90;;;;;;5048789;28;20025;-46
2022/07/03 11:02:26;;;;;;;4.25;2.67;;;25.40;61.60;;;;;;5048805;28;20048;-46
2022/07/03 11:05:01;;;;;;;5.95;2.25;;;25.40;59.90;;;;;;5049141;28;20338;-48
2022/07/03 11:07:54;;;;;;;5.05;2.00;;;25.10;60.30;;;;;;5055021;28;20044;-46
2022/07/03 11:10:22;;;;;;;4.10;1.67;;;24.90;60.40;;;;;;5047273;28;20033;-47
2022/07/03 11:13:24;;;;;;;3.45;1.50;;;24.60;62.20;;;;;;5048817;28;20036;-45
2022/07/03 11:15:58;;;;;;;3.25;1.33;;;24.20;63.60;;;;;;5031306;28;20091;-45
2022/07/03 11:18:33;;;;;;;3.55;1.40;;;24.00;64.60;;;;;;5029148;28;20044;-45
2022/07/03 11:21:30;;;;;;;3.50;1.50;;;24.10;64.70;;;;;;5051225;28;20032;-48
2022/07/03 11:24:15;;;;;;;4.22;1.50;;;24.10;64.30;;;;;;5046912;28;20333;-46
2022/07/03 11:26:41;;;;;;;5.57;1.67;;;24.40;65.10;;;;;;5047302;28;20080;-46
2022/07/03 11:29:25;;;;;;;4.63;1.52;;;24.40;64.20;;;;;;5049548;28;20584;-46
2022/07/03 11:31:52;;;;;;;2.47;1.35;;;24.20;64.90;;;;;;5045852;28;20108;-46
2022/07/03 11:34:24;;;;;;;3.38;0.95;;;24.20;64.60;;;;;;5053093;28;20028;-49
2022/07/03 11:36:53;;;;;;;6.15;1.27;;;23.90;63.30;;;;;;5064194;28;20374;-46
2022/07/03 11:39:20;;;;;;;8.63;2.20;;;23.50;64.50;;;;;;5064573;28;20106;-48
2022/07/03 11:41:53;;;;;;;5.25;1.35;;;23.40;63.50;;;;;;5052722;28;20110;-45
2022/07/03 11:44:20;;;;;;;4.43;1.23;;;23.20;64.00;;;;;;5068676;28;20133;-47
2022/07/03 11:46:49;;;;;;;2.85;1.05;;;23.10;64.00;;;;;;5073266;28;20091;-47
2022/07/03 11:49:20;;;;;;;3.80;1.15;;;22.70;63.80;;;;;;5057576;28;20446;-47
2022/07/03 11:52:05;;;;;;;4.70;1.20;;;22.50;64.60;;;;;;5052846;28;20458;-46
2022/07/03 11:54:49;;;;;;;8.32;1.15;;;22.40;63.20;;;;;;5068075;28;20039;-47
2022/07/03 11:57:16;;;;;;;3.00;1.00;;;22.40;61.90;;;;;;5070288;28;20503;-47
2022/07/03 11:59:43;;;;;;;2.72;0.77;;;22.30;62.20;;;;;;5054555;28;20043;-46
2022/07/03 12:02:10;;;;;;;3.72;1.00;;;22.20;62.10;;;;;;5071766;28;20055;-46
2022/07/03 12:04:43;;;;;;;3.25;1.00;;;22.00;62.50;;;;;;5070455;28;20040;-46
2022/07/03 12:07:09;;;;;;;3.90;1.35;;;22.20;63.30;;;;;;5055697;28;20353;-48
2022/07/03 12:09:36;;;;;;;3.35;1.10;;;22.60;66.20;;;;;;5064630;28;20021;-46
2022/07/03 12:12:08;;;;;;;4.63;1.15;;;23.30;63.00;;;;;;5071342;28;20034;-46
2022/07/03 12:14:50;;;;;;;2.22;0.80;;;23.80;61.20;;;;;;5071746;28;20029;-48
2022/07/03 12:17:21;;;;;;;3.55;0.80;;;24.20;61.50;;;;;;5072120;28;20086;-48
2022/07/03 12:20:00;;;;;;;2.05;0.77;;;24.20;60.10;;;;;;5058943;28;20359;-49
2022/07/03 12:22:41;;;;;;;3.55;0.80;;;23.60;57.80;;;;;;5051086;28;20369;-46
2022/07/03 12:25:29;;;;;;;4.10;0.82;;;23.30;59.70;;;;;;5066938;28;20389;-47
2022/07/03 12:27:56;;;;;;;3.08;0.80;;;22.70;61.10;;;;;;5058655;28;20116;-50
2022/07/03 12:30:25;;;;;;;3.58;1.40;;;22.30;62.60;;;;;;5050153;28;20042;-46
2022/07/03 12:32:56;;;;;;;2.30;0.70;;;21.90;63.20;;;;;;5071951;28;20031;-46
2022/07/03 12:35:27;;;;;;;3.45;0.80;;;21.70;63.80;;;;;;5061393;28;20458;-45
2022/07/03 12:37:55;;;;;;;2.72;1.45;;;21.60;64.70;;;;;;5051590;28;20462;-45
2022/07/03 12:40:22;;;;;;;3.20;1.13;;;21.80;65.20;;;;;;5052187;28;20048;-48
2022/07/03 12:42:50;;;;;;;3.80;1.10;;;21.90;65.30;;;;;;5070471;28;20060;-46
2022/07/03 12:45:22;;;;;;;3.63;1.00;;;21.90;66.80;;;;;;5064013;28;20037;-46
2022/07/03 12:48:00;;;;;;;4.10;1.00;;;22.10;68.00;;;;;;5051119;28;20023;-47
2022/07/03 12:50:47;;;;;;;2.28;0.90;;;22.10;67.60;;;;;;5048173;28;20028;-46
2022/07/03 12:53:30;;;;;;;3.53;0.82;;;22.10;69.00;;;;;;5051488;28;20024;-46
2022/07/03 12:56:02;;;;;;;4.32;1.10;;;22.20;67.00;;;;;;5049190;28;20116;-47
2022/07/03 13:01:33;;;;;;;1.98;0.60;;;22.10;68.60;;;;;;5049561;28;20064;-47
2022/07/03 13:04:00;;;;;;;3.25;1.15;;;22.10;70.40;;;;;;5029088;28;20030;-47
2022/07/03 13:06:27;;;;;;;2.53;1.20;;;21.90;67.50;;;;;;5051784;28;20439;-46
2022/07/03 13:08:58;;;;;;;2.92;1.05;;;21.90;69.30;;;;;;5051402;28;20036;-46
2022/07/03 13:11:37;;;;;;;4.35;1.05;;;21.70;69.20;;;;;;5060072;28;20342;-47
2022/07/03 13:14:10;;;;;;;4.65;1.30;;;21.60;70.20;;;;;;5059511;28;20036;-46
2022/07/03 13:16:38;;;;;;;5.20;1.10;;;21.70;70.80;;;;;;5059911;28;20043;-47
2022/07/03 13:19:12;;;;;;;1.83;0.80;;;21.70;70.10;;;;;;5059576;28;20104;-46
2022/07/03 13:21:38;;;;;;;6.88;1.05;;;22.00;68.60;;;;;;5050988;28;20054;-50
2022/07/03 13:24:07;;;;;;;7.05;1.35;;;22.20;67.60;;;;;;5050522;28;20021;-50
2022/07/03 13:26:33;;;;;;;2.87;1.23;;;22.40;69.00;;;;;;5049332;28;20090;-49
2022/07/03 13:29:05;;;;;;;4.43;1.10;;;22.60;67.20;;;;;;5046798;28;20032;-46